sensor_id;sensor_type;location;lat;lon;timestamp;P1;durP1;ratioP1;P2;durP2;ratioP2
10711;SDS011;5407;51.234;6.804;2023-09-18T00:01:41;8.25;;;4.38;;
10711;SDS011;5407;51.234;6.804;2023-09-18T00:04:09;8.55;;;4.38;;
10711;SDS011;5407;51.234;6.804;2023-09-18T00:06:36;13.35;;;4.80;;
10711;SDS011;5407;51.234;6.804;2023-09-18T00:09:03;8.63;;;4.25;;
10711;SDS011;5407;51.234;6.804;2023-09-18T00:11:30;9.23;;;4.78;;
10711;SDS011;5407;51.234;6.804;2023-09-18T00:13:56;8.35;;;4.38;;
10711;SDS011;5407;51.234;6.804;2023-09-18T00:16:25;8.63;;;5.10;;
10711;SDS011;5407;51.234;6.804;2023-09-18T00:18:52;10.65;;;4.75;;
10711;SDS011;5407;51.234;6.804;2023-09-18T00:21:20;8.23;;;4.85;;
10711;SDS011;5407;51.234;6.804;2023-09-18T00:23:47;8.68;;;4.53;;
10711;SDS011;5407;51.234;6.804;2023-09-18T00:26:14;15.13;;;4.53;;
10711;SDS011;5407;51.234;6.804;2023-09-18T00:28:44;9.80;;;4.60;;
10711;SDS011;5407;51.234;6.804;2023-09-18T00:31:11;10.65;;;5.10;;
10711;SDS011;5407;51.234;6.804;2023-09-18T00:33:40;10.85;;;5.05;;
10711;SDS011;5407;51.234;6.804;2023-09-18T00:36:06;7.95;;;4.28;;
10711;SDS011;5407;51.234;6.804;2023-09-18T00:38:33;9.88;;;4.43;;
10711;SDS011;5407;51.234;6.804;2023-09-18T00:41:00;6.45;;;4.50;;
10711;SDS011;5407;51.234;6.804;2023-09-18T00:43:27;11.10;;;4.68;;
10711;SDS011;5407;51.234;6.804;2023-09-18T00:45:54;11.50;;;4.60;;
10711;SDS011;5407;51.234;6.804;2023-09-18T00:48:21;9.50;;;4.57;;
10711;SDS011;5407;51.234;6.804;2023-09-18T00:50:50;8.75;;;4.75;;
10711;SDS011;5407;51.234;6.804;2023-09-18T00:53:17;11.18;;;4.75;;
10711;SDS011;5407;51.234;6.804;2023-09-18T00:55:46;6.90;;;4.57;;
10711;SDS011;5407;51.234;6.804;2023-09-18T00:58:15;11.90;;;4.90;;
10711;SDS011;5407;51.234;6.804;2023-09-18T01:00:41;8.05;;;4.60;;
10711;SDS011;5407;51.234;6.804;2023-09-18T01:03:10;8.90;;;4.75;;
10711;SDS011;5407;51.234;6.804;2023-09-18T01:05:38;8.60;;;4.80;;
10711;SDS011;5407;51.234;6.804;2023-09-18T01:08:06;7.30;;;4.38;;
10711;SDS011;5407;51.234;6.804;2023-09-18T01:10:34;9.77;;;4.70;;
10711;SDS011;5407;51.234;6.804;2023-09-18T01:13:08;10.27;;;4.80;;
10711;SDS011;5407;51.234;6.804;2023-09-18T01:15:42;10.05;;;4.50;;
10711;SDS011;5407;51.234;6.804;2023-09-18T01:18:14;11.32;;;4.68;;
10711;SDS011;5407;51.234;6.804;2023-09-18T01:20:43;9.45;;;4.60;;
10711;SDS011;5407;51.234;6.804;2023-09-18T01:23:11;9.63;;;4.57;;
10711;SDS011;5407;51.234;6.804;2023-09-18T01:25:38;11.93;;;4.38;;
10711;SDS011;5407;51.234;6.804;2023-09-18T01:28:05;10.40;;;4.38;;
10711;SDS011;5407;51.234;6.804;2023-09-18T01:30:32;10.82;;;4.65;;
10711;SDS011;5407;51.234;6.804;2023-09-18T01:32:59;10.30;;;4.80;;
10711;SDS011;5407;51.234;6.804;2023-09-18T01:35:28;11.85;;;4.93;;
10711;SDS011;5407;51.234;6.804;2023-09-18T01:37:57;8.98;;;4.57;;
10711;SDS011;5407;51.234;6.804;2023-09-18T01:40:27;10.45;;;4.80;;
10711;SDS011;5407;51.234;6.804;2023-09-18T01:42:55;12.02;;;4.60;;
10711;SDS011;5407;51.234;6.804;2023-09-18T01:45:22;8.57;;;4.55;;
10711;SDS011;5407;51.234;6.804;2023-09-18T01:47:49;9.30;;;4.68;;
10711;SDS011;5407;51.234;6.804;2023-09-18T01:50:17;12.38;;;4.80;;
10711;SDS011;5407;51.234;6.804;2023-09-18T01:52:44;7.50;;;3.97;;
10711;SDS011;5407;51.234;6.804;2023-09-18T01:55:11;12.32;;;4.80;;
10711;SDS011;5407;51.234;6.804;2023-09-18T01:57:40;11.48;;;4.07;;
10711;SDS011;5407;51.234;6.804;2023-09-18T02:00:08;11.60;;;4.75;;
10711;SDS011;5407;51.234;6.804;2023-09-18T02:02:40;6.40;;;4.10;;
10711;SDS011;5407;51.234;6.804;2023-09-18T02:05:07;7.50;;;4.72;;
10711;SDS011;5407;51.234;6.804;2023-09-18T02:07:34;11.25;;;4.45;;
10711;SDS011;5407;51.234;6.804;2023-09-18T02:10:01;9.32;;;4.50;;
10711;SDS011;5407;51.234;6.804;2023-09-18T02:12:28;7.72;;;4.22;;
10711;SDS011;5407;51.234;6.804;2023-09-18T02:14:56;10.15;;;4.72;;
10711;SDS011;5407;51.234;6.804;2023-09-18T02:17:29;8.02;;;4.28;;
10711;SDS011;5407;51.234;6.804;2023-09-18T02:19:56;10.68;;;4.32;;
10711;SDS011;5407;51.234;6.804;2023-09-18T02:22:23;7.32;;;4.13;;
10711;SDS011;5407;51.234;6.804;2023-09-18T02:24:51;11.38;;;4.45;;
10711;SDS011;5407;51.234;6.804;2023-09-18T02:27:18;9.93;;;4.35;;
10711;SDS011;5407;51.234;6.804;2023-09-18T02:29:45;11.75;;;4.38;;
10711;SDS011;5407;51.234;6.804;2023-09-18T02:32:13;10.07;;;4.28;;
10711;SDS011;5407;51.234;6.804;2023-09-18T02:34:40;15.23;;;4.50;;
10711;SDS011;5407;51.234;6.804;2023-09-18T02:37:07;5.88;;;4.40;;
10711;SDS011;5407;51.234;6.804;2023-09-18T02:39:34;11.23;;;4.32;;
10711;SDS011;5407;51.234;6.804;2023-09-18T02:42:01;12.80;;;4.82;;
10711;SDS011;5407;51.234;6.804;2023-09-18T02:44:28;11.68;;;4.70;;
10711;SDS011;5407;51.234;6.804;2023-09-18T02:46:55;11.20;;;4.82;;
10711;SDS011;5407;51.234;6.804;2023-09-18T02:49:25;9.18;;;5.05;;
10711;SDS011;5407;51.234;6.804;2023-09-18T02:51:52;8.40;;;4.75;;
10711;SDS011;5407;51.234;6.804;2023-09-18T02:54:19;6.95;;;4.22;;
10711;SDS011;5407;51.234;6.804;2023-09-18T02:56:46;8.60;;;4.15;;
10711;SDS011;5407;51.234;6.804;2023-09-18T02:59:13;13.10;;;4.72;;
10711;SDS011;5407;51.234;6.804;2023-09-18T03:01:40;9.88;;;4.53;;
10711;SDS011;5407;51.234;6.804;2023-09-18T03:04:07;18.20;;;5.05;;
10711;SDS011;5407;51.234;6.804;2023-09-18T03:06:37;13.63;;;4.70;;
10711;SDS011;5407;51.234;6.804;2023-09-18T03:09:04;9.00;;;4.88;;
10711;SDS011;5407;51.234;6.804;2023-09-18T03:11:31;11.70;;;5.13;;
10711;SDS011;5407;51.234;6.804;2023-09-18T03:13:58;10.65;;;5.03;;
10711;SDS011;5407;51.234;6.804;2023-09-18T03:16:25;9.13;;;4.88;;
10711;SDS011;5407;51.234;6.804;2023-09-18T03:18:52;10.30;;;4.55;;
10711;SDS011;5407;51.234;6.804;2023-09-18T03:21:19;11.70;;;4.63;;
10711;SDS011;5407;51.234;6.804;2023-09-18T03:23:48;12.32;;;4.70;;
10711;SDS011;5407;51.234;6.804;2023-09-18T03:26:15;12.82;;;4.60;;
10711;SDS011;5407;51.234;6.804;2023-09-18T03:28:42;9.18;;;4.30;;
10711;SDS011;5407;51.234;6.804;2023-09-18T03:31:09;6.50;;;4.50;;
10711;SDS011;5407;51.234;6.804;2023-09-18T03:33:36;10.18;;;4.80;;
10711;SDS011;5407;51.234;6.804;2023-09-18T03:36:03;8.95;;;4.65;;
10711;SDS011;5407;51.234;6.804;2023-09-18T03:38:33;9.95;;;4.97;;
10711;SDS011;5407;51.234;6.804;2023-09-18T03:41:02;8.57;;;4.70;;
10711;SDS011;5407;51.234;6.804;2023-09-18T03:43:29;12.20;;;4.95;;
10711;SDS011;5407;51.234;6.804;2023-09-18T03:46:02;11.70;;;4.60;;
10711;SDS011;5407;51.234;6.804;2023-09-18T03:48:31;8.48;;;4.50;;
10711;SDS011;5407;51.234;6.804;2023-09-18T03:51:03;7.95;;;4.38;;
10711;SDS011;5407;51.234;6.804;2023-09-18T03:53:30;9.25;;;4.50;;
10711;SDS011;5407;51.234;6.804;2023-09-18T03:55:58;8.30;;;4.18;;
10711;SDS011;5407;51.234;6.804;2023-09-18T03:58:26;12.02;;;4.35;;
10711;SDS011;5407;51.234;6.804;2023-09-18T04:00:53;12.55;;;4.95;;
10711;SDS011;5407;51.234;6.804;2023-09-18T04:03:20;10.55;;;4.75;;
10711;SDS011;5407;51.234;6.804;2023-09-18T04:05:47;11.90;;;4.80;;
10711;SDS011;5407;51.234;6.804;2023-09-18T04:08:14;8.73;;;4.60;;
10711;SDS011;5407;51.234;6.804;2023-09-18T04:10:41;11.57;;;4.50;;
10711;SDS011;5407;51.234;6.804;2023-09-18T04:13:09;15.50;;;4.32;;
10711;SDS011;5407;51.234;6.804;2023-09-18T04:15:37;12.35;;;4.90;;
10711;SDS011;5407;51.234;6.804;2023-09-18T04:18:04;9.82;;;4.40;;
10711;SDS011;5407;51.234;6.804;2023-09-18T04:20:31;13.32;;;4.45;;
10711;SDS011;5407;51.234;6.804;2023-09-18T04:25:43;9.40;;;4.63;;
10711;SDS011;5407;51.234;6.804;2023-09-18T04:28:10;10.13;;;4.30;;
10711;SDS011;5407;51.234;6.804;2023-09-18T04:30:39;11.02;;;4.45;;
10711;SDS011;5407;51.234;6.804;2023-09-18T04:33:06;11.18;;;4.63;;
10711;SDS011;5407;51.234;6.804;2023-09-18T04:35:34;15.40;;;4.80;;
10711;SDS011;5407;51.234;6.804;2023-09-18T04:38:02;10.45;;;4.28;;
10711;SDS011;5407;51.234;6.804;2023-09-18T04:40:29;12.35;;;4.50;;
10711;SDS011;5407;51.234;6.804;2023-09-18T04:42:57;11.00;;;4.38;;
10711;SDS011;5407;51.234;6.804;2023-09-18T04:45:24;9.70;;;4.05;;
10711;SDS011;5407;51.234;6.804;2023-09-18T04:47:53;9.35;;;4.10;;
10711;SDS011;5407;51.234;6.804;2023-09-18T04:50:20;9.88;;;4.28;;
10711;SDS011;5407;51.234;6.804;2023-09-18T04:52:47;12.48;;;4.38;;
10711;SDS011;5407;51.234;6.804;2023-09-18T04:55:16;12.38;;;4.38;;
10711;SDS011;5407;51.234;6.804;2023-09-18T04:57:43;8.35;;;3.90;;
10711;SDS011;5407;51.234;6.804;2023-09-18T05:00:11;8.65;;;4.43;;
10711;SDS011;5407;51.234;6.804;2023-09-18T05:02:39;11.00;;;3.95;;
10711;SDS011;5407;51.234;6.804;2023-09-18T05:05:08;10.93;;;3.90;;
10711;SDS011;5407;51.234;6.804;2023-09-18T05:07:35;13.15;;;4.00;;
10711;SDS011;5407;51.234;6.804;2023-09-18T05:10:03;12.10;;;4.20;;
10711;SDS011;5407;51.234;6.804;2023-09-18T05:12:31;12.82;;;3.80;;
10711;SDS011;5407;51.234;6.804;2023-09-18T05:14:58;10.52;;;4.15;;
10711;SDS011;5407;51.234;6.804;2023-09-18T05:17:38;13.45;;;4.13;;
10711;SDS011;5407;51.234;6.804;2023-09-18T05:20:09;12.23;;;4.07;;
10711;SDS011;5407;51.234;6.804;2023-09-18T05:22:38;7.47;;;3.80;;
10711;SDS011;5407;51.234;6.804;2023-09-18T05:25:07;9.52;;;3.88;;
10711;SDS011;5407;51.234;6.804;2023-09-18T05:27:35;10.35;;;4.13;;
10711;SDS011;5407;51.234;6.804;2023-09-18T05:30:09;10.02;;;4.10;;
10711;SDS011;5407;51.234;6.804;2023-09-18T05:32:38;14.05;;;4.38;;
10711;SDS011;5407;51.234;6.804;2023-09-18T05:35:05;7.80;;;4.10;;
10711;SDS011;5407;51.234;6.804;2023-09-18T05:37:36;9.23;;;4.18;;
10711;SDS011;5407;51.234;6.804;2023-09-18T05:40:04;14.48;;;3.80;;
10711;SDS011;5407;51.234;6.804;2023-09-18T05:42:34;9.85;;;4.13;;
10711;SDS011;5407;51.234;6.804;2023-09-18T05:45:01;9.15;;;3.50;;
10711;SDS011;5407;51.234;6.804;2023-09-18T05:47:29;14.35;;;3.92;;
10711;SDS011;5407;51.234;6.804;2023-09-18T05:49:57;7.95;;;3.60;;
10711;SDS011;5407;51.234;6.804;2023-09-18T05:52:24;15.18;;;3.63;;
10711;SDS011;5407;51.234;6.804;2023-09-18T05:54:52;12.43;;;4.07;;
10711;SDS011;5407;51.234;6.804;2023-09-18T05:57:19;9.50;;;4.05;;
10711;SDS011;5407;51.234;6.804;2023-09-18T05:59:46;14.90;;;3.75;;
10711;SDS011;5407;51.234;6.804;2023-09-18T06:02:13;11.38;;;3.83;;
10711;SDS011;5407;51.234;6.804;2023-09-18T06:04:41;11.82;;;3.92;;
10711;SDS011;5407;51.234;6.804;2023-09-18T06:07:08;14.77;;;4.10;;
10711;SDS011;5407;51.234;6.804;2023-09-18T06:09:35;9.90;;;4.20;;
10711;SDS011;5407;51.234;6.804;2023-09-18T06:12:04;11.60;;;4.13;;
10711;SDS011;5407;51.234;6.804;2023-09-18T06:14:31;9.73;;;3.72;;
10711;SDS011;5407;51.234;6.804;2023-09-18T06:16:59;8.35;;;3.53;;
10711;SDS011;5407;51.234;6.804;2023-09-18T06:19:26;14.65;;;3.97;;
10711;SDS011;5407;51.234;6.804;2023-09-18T06:21:53;9.40;;;3.58;;
10711;SDS011;5407;51.234;6.804;2023-09-18T06:24:20;11.65;;;3.75;;
10711;SDS011;5407;51.234;6.804;2023-09-18T06:26:46;8.35;;;3.50;;
10711;SDS011;5407;51.234;6.804;2023-09-18T06:29:15;9.60;;;3.03;;
10711;SDS011;5407;51.234;6.804;2023-09-18T06:31:42;7.47;;;3.30;;
10711;SDS011;5407;51.234;6.804;2023-09-18T06:34:08;9.63;;;3.25;;
10711;SDS011;5407;51.234;6.804;2023-09-18T06:36:35;6.97;;;3.00;;
10711;SDS011;5407;51.234;6.804;2023-09-18T06:39:02;10.73;;;2.85;;
10711;SDS011;5407;51.234;6.804;2023-09-18T06:41:29;9.55;;;3.08;;
10711;SDS011;5407;51.234;6.804;2023-09-18T06:43:56;9.77;;;3.22;;
10711;SDS011;5407;51.234;6.804;2023-09-18T06:46:24;10.93;;;3.55;;
10711;SDS011;5407;51.234;6.804;2023-09-18T06:48:51;6.75;;;3.00;;
10711;SDS011;5407;51.234;6.804;2023-09-18T06:51:18;7.68;;;2.67;;
10711;SDS011;5407;51.234;6.804;2023-09-18T06:53:45;7.03;;;2.90;;
10711;SDS011;5407;51.234;6.804;2023-09-18T06:56:12;10.25;;;2.60;;
10711;SDS011;5407;51.234;6.804;2023-09-18T06:58:39;6.18;;;2.30;;
10711;SDS011;5407;51.234;6.804;2023-09-18T07:01:06;9.73;;;2.90;;
10711;SDS011;5407;51.234;6.804;2023-09-18T07:03:36;5.25;;;2.58;;
10711;SDS011;5407;51.234;6.804;2023-09-18T07:06:05;6.03;;;2.30;;
10711;SDS011;5407;51.234;6.804;2023-09-18T07:08:32;9.25;;;2.88;;
10711;SDS011;5407;51.234;6.804;2023-09-18T07:10:59;6.65;;;2.63;;
10711;SDS011;5407;51.234;6.804;2023-09-18T07:13:26;9.07;;;2.60;;
10711;SDS011;5407;51.234;6.804;2023-09-18T07:15:53;6.93;;;2.38;;
10711;SDS011;5407;51.234;6.804;2023-09-18T07:18:20;7.30;;;2.55;;
10711;SDS011;5407;51.234;6.804;2023-09-18T07:20:48;4.47;;;2.10;;
10711;SDS011;5407;51.234;6.804;2023-09-18T07:23:15;8.57;;;2.63;;
10711;SDS011;5407;51.234;6.804;2023-09-18T07:25:42;6.45;;;2.40;;
10711;SDS011;5407;51.234;6.804;2023-09-18T07:28:10;9.82;;;2.28;;
10711;SDS011;5407;51.234;6.804;2023-09-18T07:30:41;10.50;;;2.30;;
10711;SDS011;5407;51.234;6.804;2023-09-18T07:33:09;8.02;;;2.95;;
10711;SDS011;5407;51.234;6.804;2023-09-18T07:35:36;8.25;;;2.55;;
10711;SDS011;5407;51.234;6.804;2023-09-18T07:38:04;8.63;;;2.45;;
10711;SDS011;5407;51.234;6.804;2023-09-18T07:40:31;5.63;;;2.22;;
10711;SDS011;5407;51.234;6.804;2023-09-18T07:42:58;5.20;;;2.10;;
10711;SDS011;5407;51.234;6.804;2023-09-18T07:45:25;6.13;;;1.98;;
10711;SDS011;5407;51.234;6.804;2023-09-18T07:47:52;4.40;;;2.00;;
10711;SDS011;5407;51.234;6.804;2023-09-18T07:50:19;5.03;;;2.20;;
10711;SDS011;5407;51.234;6.804;2023-09-18T07:52:46;7.03;;;2.15;;
10711;SDS011;5407;51.234;6.804;2023-09-18T07:55:14;5.55;;;2.22;;
10711;SDS011;5407;51.234;6.804;2023-09-18T07:57:41;4.45;;;2.10;;
10711;SDS011;5407;51.234;6.804;2023-09-18T08:00:10;3.83;;;2.00;;
10711;SDS011;5407;51.234;6.804;2023-09-18T08:02:38;5.45;;;2.08;;
10711;SDS011;5407;51.234;6.804;2023-09-18T08:05:05;4.43;;;2.20;;
10711;SDS011;5407;51.234;6.804;2023-09-18T08:07:33;5.13;;;2.10;;
10711;SDS011;5407;51.234;6.804;2023-09-18T08:10:01;5.03;;;2.00;;
10711;SDS011;5407;51.234;6.804;2023-09-18T08:12:32;4.82;;;2.00;;
10711;SDS011;5407;51.234;6.804;2023-09-18T08:14:59;3.50;;;1.80;;
10711;SDS011;5407;51.234;6.804;2023-09-18T08:17:28;7.57;;;2.15;;
10711;SDS011;5407;51.234;6.804;2023-09-18T08:19:54;7.03;;;1.83;;
10711;SDS011;5407;51.234;6.804;2023-09-18T08:22:21;3.88;;;2.00;;
10711;SDS011;5407;51.234;6.804;2023-09-18T08:24:48;5.80;;;1.58;;
10711;SDS011;5407;51.234;6.804;2023-09-18T08:27:17;5.50;;;2.10;;
10711;SDS011;5407;51.234;6.804;2023-09-18T08:29:46;6.70;;;2.10;;
10711;SDS011;5407;51.234;6.804;2023-09-18T08:32:13;3.28;;;1.75;;
10711;SDS011;5407;51.234;6.804;2023-09-18T08:34:40;5.60;;;1.60;;
10711;SDS011;5407;51.234;6.804;2023-09-18T08:37:07;5.47;;;1.60;;
10711;SDS011;5407;51.234;6.804;2023-09-18T08:39:34;8.77;;;2.10;;
10711;SDS011;5407;51.234;6.804;2023-09-18T08:42:03;3.80;;;1.70;;
10711;SDS011;5407;51.234;6.804;2023-09-18T08:44:32;5.47;;;1.90;;
10711;SDS011;5407;51.234;6.804;2023-09-18T08:47:01;5.95;;;1.90;;
10711;SDS011;5407;51.234;6.804;2023-09-18T08:49:29;3.70;;;1.67;;
10711;SDS011;5407;51.234;6.804;2023-09-18T08:51:56;8.20;;;2.35;;
10711;SDS011;5407;51.234;6.804;2023-09-18T08:54:25;8.50;;;1.85;;
10711;SDS011;5407;51.234;6.804;2023-09-18T08:56:53;4.40;;;1.80;;
10711;SDS011;5407;51.234;6.804;2023-09-18T08:59:21;5.68;;;2.10;;
10711;SDS011;5407;51.234;6.804;2023-09-18T09:01:48;6.70;;;2.05;;
10711;SDS011;5407;51.234;6.804;2023-09-18T09:04:16;3.30;;;1.90;;
10711;SDS011;5407;51.234;6.804;2023-09-18T09:06:43;10.32;;;2.65;;
10711;SDS011;5407;51.234;6.804;2023-09-18T09:09:10;4.32;;;1.88;;
10711;SDS011;5407;51.234;6.804;2023-09-18T09:11:38;4.18;;;1.75;;
10711;SDS011;5407;51.234;6.804;2023-09-18T09:14:08;7.10;;;1.85;;
10711;SDS011;5407;51.234;6.804;2023-09-18T09:16:41;4.28;;;2.00;;
10711;SDS011;5407;51.234;6.804;2023-09-18T09:19:13;7.32;;;1.83;;
10711;SDS011;5407;51.234;6.804;2023-09-18T09:21:43;5.95;;;2.03;;
10711;SDS011;5407;51.234;6.804;2023-09-18T09:24:10;6.40;;;2.15;;
10711;SDS011;5407;51.234;6.804;2023-09-18T09:26:39;4.30;;;2.28;;
10711;SDS011;5407;51.234;6.804;2023-09-18T09:29:14;4.30;;;2.13;;
10711;SDS011;5407;51.234;6.804;2023-09-18T09:31:43;5.07;;;2.30;;
10711;SDS011;5407;51.234;6.804;2023-09-18T09:34:11;25.65;;;4.93;;
10711;SDS011;5407;51.234;6.804;2023-09-18T09:36:52;4.28;;;2.00;;
10711;SDS011;5407;51.234;6.804;2023-09-18T09:39:19;4.57;;;1.95;;
10711;SDS011;5407;51.234;6.804;2023-09-18T09:41:50;7.15;;;1.70;;
10711;SDS011;5407;51.234;6.804;2023-09-18T09:44:18;4.43;;;2.00;;
10711;SDS011;5407;51.234;6.804;2023-09-18T09:46:46;6.57;;;2.30;;
10711;SDS011;5407;51.234;6.804;2023-09-18T09:49:14;5.40;;;1.95;;
10711;SDS011;5407;51.234;6.804;2023-09-18T09:51:41;3.90;;;1.75;;
10711;SDS011;5407;51.234;6.804;2023-09-18T09:54:10;6.60;;;2.08;;
10711;SDS011;5407;51.234;6.804;2023-09-18T09:56:41;6.07;;;1.88;;
10711;SDS011;5407;51.234;6.804;2023-09-18T09:59:10;11.85;;;2.30;;
10711;SDS011;5407;51.234;6.804;2023-09-18T10:01:38;4.30;;;2.30;;
10711;SDS011;5407;51.234;6.804;2023-09-18T10:04:08;5.80;;;2.10;;
10711;SDS011;5407;51.234;6.804;2023-09-18T10:06:37;5.28;;;2.22;;
10711;SDS011;5407;51.234;6.804;2023-09-18T10:09:06;5.50;;;2.10;;
10711;SDS011;5407;51.234;6.804;2023-09-18T10:11:39;5.18;;;2.20;;
10711;SDS011;5407;51.234;6.804;2023-09-18T10:14:09;4.93;;;2.13;;
10711;SDS011;5407;51.234;6.804;2023-09-18T10:16:41;3.13;;;1.77;;
10711;SDS011;5407;51.234;6.804;2023-09-18T10:19:19;4.82;;;1.70;;
10711;SDS011;5407;51.234;6.804;2023-09-18T10:21:53;5.05;;;1.98;;
10711;SDS011;5407;51.234;6.804;2023-09-18T10:24:32;6.90;;;2.00;;
10711;SDS011;5407;51.234;6.804;2023-09-18T10:27:04;5.18;;;1.80;;
10711;SDS011;5407;51.234;6.804;2023-09-18T10:29:33;4.32;;;1.90;;
10711;SDS011;5407;51.234;6.804;2023-09-18T10:32:02;7.28;;;2.30;;
10711;SDS011;5407;51.234;6.804;2023-09-18T10:34:30;4.63;;;2.00;;
10711;SDS011;5407;51.234;6.804;2023-09-18T10:36:59;4.55;;;1.90;;
10711;SDS011;5407;51.234;6.804;2023-09-18T10:39:30;5.53;;;2.00;;
10711;SDS011;5407;51.234;6.804;2023-09-18T10:42:00;4.47;;;1.90;;
10711;SDS011;5407;51.234;6.804;2023-09-18T10:44:30;5.60;;;2.00;;
10711;SDS011;5407;51.234;6.804;2023-09-18T10:46:58;6.32;;;1.98;;
10711;SDS011;5407;51.234;6.804;2023-09-18T10:49:28;3.80;;;1.95;;
10711;SDS011;5407;51.234;6.804;2023-09-18T10:51:56;5.13;;;1.85;;
10711;SDS011;5407;51.234;6.804;2023-09-18T10:54:24;4.60;;;1.90;;
10711;SDS011;5407;51.234;6.804;2023-09-18T10:56:54;5.13;;;1.90;;
10711;SDS011;5407;51.234;6.804;2023-09-18T10:59:23;3.90;;;2.03;;
10711;SDS011;5407;51.234;6.804;2023-09-18T11:01:51;5.88;;;2.03;;
10711;SDS011;5407;51.234;6.804;2023-09-18T11:04:19;6.20;;;2.50;;
10711;SDS011;5407;51.234;6.804;2023-09-18T11:07:03;3.63;;;2.13;;
10711;SDS011;5407;51.234;6.804;2023-09-18T11:09:32;3.45;;;1.70;;
10711;SDS011;5407;51.234;6.804;2023-09-18T11:12:08;2.60;;;1.75;;
10711;SDS011;5407;51.234;6.804;2023-09-18T11:14:43;5.97;;;1.95;;
10711;SDS011;5407;51.234;6.804;2023-09-18T11:17:34;3.92;;;2.00;;
10711;SDS011;5407;51.234;6.804;2023-09-18T11:20:06;2.80;;;2.00;;
10711;SDS011;5407;51.234;6.804;2023-09-18T11:22:37;5.43;;;1.83;;
10711;SDS011;5407;51.234;6.804;2023-09-18T11:28:01;4.13;;;1.80;;
10711;SDS011;5407;51.234;6.804;2023-09-18T11:30:28;3.33;;;1.88;;
10711;SDS011;5407;51.234;6.804;2023-09-18T11:32:57;3.67;;;2.00;;
10711;SDS011;5407;51.234;6.804;2023-09-18T11:35:25;4.97;;;2.22;;
10711;SDS011;5407;51.234;6.804;2023-09-18T11:38:02;4.80;;;1.92;;
10711;SDS011;5407;51.234;6.804;2023-09-18T11:40:32;3.67;;;2.10;;
10711;SDS011;5407;51.234;6.804;2023-09-18T11:43:19;7.93;;;2.10;;
10711;SDS011;5407;51.234;6.804;2023-09-18T11:45:51;3.53;;;2.08;;
10711;SDS011;5407;51.234;6.804;2023-09-18T11:48:20;6.32;;;2.00;;
10711;SDS011;5407;51.234;6.804;2023-09-18T11:50:48;5.70;;;2.28;;
10711;SDS011;5407;51.234;6.804;2023-09-18T11:53:16;4.75;;;2.03;;
10711;SDS011;5407;51.234;6.804;2023-09-18T11:55:45;6.63;;;1.95;;
10711;SDS011;5407;51.234;6.804;2023-09-18T11:58:13;4.60;;;1.95;;
10711;SDS011;5407;51.234;6.804;2023-09-18T12:00:40;3.22;;;2.10;;
10711;SDS011;5407;51.234;6.804;2023-09-18T12:03:15;3.90;;;2.03;;
10711;SDS011;5407;51.234;6.804;2023-09-18T12:05:55;4.20;;;2.08;;
10711;SDS011;5407;51.234;6.804;2023-09-18T12:08:24;3.95;;;1.65;;
10711;SDS011;5407;51.234;6.804;2023-09-18T12:10:53;2.90;;;1.88;;
10711;SDS011;5407;51.234;6.804;2023-09-18T12:13:20;5.15;;;2.03;;
10711;SDS011;5407;51.234;6.804;2023-09-18T12:15:47;4.22;;;1.98;;
10711;SDS011;5407;51.234;6.804;2023-09-18T12:18:15;3.30;;;1.92;;
10711;SDS011;5407;51.234;6.804;2023-09-18T12:20:46;3.55;;;1.98;;
10711;SDS011;5407;51.234;6.804;2023-09-18T12:23:16;3.85;;;1.92;;
10711;SDS011;5407;51.234;6.804;2023-09-18T12:25:45;4.70;;;1.95;;
10711;SDS011;5407;51.234;6.804;2023-09-18T12:28:14;5.10;;;2.13;;
10711;SDS011;5407;51.234;6.804;2023-09-18T12:30:41;3.08;;;1.95;;
10711;SDS011;5407;51.234;6.804;2023-09-18T12:33:09;3.15;;;2.20;;
10711;SDS011;5407;51.234;6.804;2023-09-18T12:35:38;3.88;;;1.75;;
10711;SDS011;5407;51.234;6.804;2023-09-18T12:38:13;2.40;;;1.63;;
10711;SDS011;5407;51.234;6.804;2023-09-18T12:40:43;2.80;;;1.80;;
10711;SDS011;5407;51.234;6.804;2023-09-18T12:43:12;3.08;;;1.75;;
10711;SDS011;5407;51.234;6.804;2023-09-18T12:45:41;2.85;;;1.75;;
10711;SDS011;5407;51.234;6.804;2023-09-18T12:48:09;1.90;;;1.67;;
10711;SDS011;5407;51.234;6.804;2023-09-18T12:50:37;4.90;;;1.80;;
10711;SDS011;5407;51.234;6.804;2023-09-18T12:53:10;5.93;;;2.00;;
10711;SDS011;5407;51.234;6.804;2023-09-18T12:55:39;5.85;;;1.60;;
10711;SDS011;5407;51.234;6.804;2023-09-18T12:58:09;2.85;;;1.85;;
10711;SDS011;5407;51.234;6.804;2023-09-18T13:00:43;4.45;;;1.85;;
10711;SDS011;5407;51.234;6.804;2023-09-18T13:03:12;4.25;;;2.20;;
10711;SDS011;5407;51.234;6.804;2023-09-18T13:05:39;2.72;;;2.05;;
10711;SDS011;5407;51.234;6.804;2023-09-18T13:08:06;6.13;;;2.10;;
10711;SDS011;5407;51.234;6.804;2023-09-18T13:10:40;4.53;;;2.20;;
10711;SDS011;5407;51.234;6.804;2023-09-18T13:13:16;8.10;;;1.90;;
10711;SDS011;5407;51.234;6.804;2023-09-18T13:15:44;6.78;;;2.00;;
10711;SDS011;5407;51.234;6.804;2023-09-18T13:18:13;3.63;;;2.03;;
10711;SDS011;5407;51.234;6.804;2023-09-18T13:20:41;3.85;;;1.92;;
10711;SDS011;5407;51.234;6.804;2023-09-18T13:23:09;3.97;;;2.10;;
10711;SDS011;5407;51.234;6.804;2023-09-18T13:25:36;5.70;;;2.10;;
10711;SDS011;5407;51.234;6.804;2023-09-18T13:28:05;6.82;;;2.00;;
10711;SDS011;5407;51.234;6.804;2023-09-18T13:30:36;3.33;;;1.88;;
10711;SDS011;5407;51.234;6.804;2023-09-18T13:33:06;2.70;;;1.90;;
10711;SDS011;5407;51.234;6.804;2023-09-18T13:35:35;4.40;;;1.92;;
10711;SDS011;5407;51.234;6.804;2023-09-18T13:38:04;3.22;;;2.20;;
10711;SDS011;5407;51.234;6.804;2023-09-18T13:40:33;4.28;;;1.80;;
10711;SDS011;5407;51.234;6.804;2023-09-18T13:43:02;5.57;;;1.88;;
10711;SDS011;5407;51.234;6.804;2023-09-18T13:45:30;3.67;;;2.20;;
10711;SDS011;5407;51.234;6.804;2023-09-18T13:47:58;4.65;;;2.35;;
10711;SDS011;5407;51.234;6.804;2023-09-18T13:50:26;2.42;;;1.80;;
10711;SDS011;5407;51.234;6.804;2023-09-18T13:52:53;5.05;;;2.20;;
10711;SDS011;5407;51.234;6.804;2023-09-18T13:55:20;5.80;;;2.10;;
10711;SDS011;5407;51.234;6.804;2023-09-18T13:57:48;8.73;;;2.35;;
10711;SDS011;5407;51.234;6.804;2023-09-18T14:00:16;3.10;;;1.73;;
10711;SDS011;5407;51.234;6.804;2023-09-18T14:02:44;4.88;;;2.03;;
10711;SDS011;5407;51.234;6.804;2023-09-18T14:05:12;1.90;;;1.75;;
10711;SDS011;5407;51.234;6.804;2023-09-18T14:07:40;4.00;;;2.00;;
10711;SDS011;5407;51.234;6.804;2023-09-18T14:10:07;3.88;;;2.00;;
10711;SDS011;5407;51.234;6.804;2023-09-18T14:12:35;3.67;;;2.00;;
10711;SDS011;5407;51.234;6.804;2023-09-18T14:15:03;4.22;;;1.90;;
10711;SDS011;5407;51.234;6.804;2023-09-18T14:17:31;3.80;;;1.70;;
10711;SDS011;5407;51.234;6.804;2023-09-18T14:19:58;4.45;;;1.80;;
10711;SDS011;5407;51.234;6.804;2023-09-18T14:22:26;4.82;;;1.92;;
10711;SDS011;5407;51.234;6.804;2023-09-18T14:24:53;2.17;;;1.80;;
10711;SDS011;5407;51.234;6.804;2023-09-18T14:27:20;7.38;;;2.10;;
10711;SDS011;5407;51.234;6.804;2023-09-18T14:29:47;3.53;;;1.85;;
10711;SDS011;5407;51.234;6.804;2023-09-18T14:32:14;2.75;;;1.80;;
10711;SDS011;5407;51.234;6.804;2023-09-18T14:34:41;3.83;;;1.90;;
10711;SDS011;5407;51.234;6.804;2023-09-18T14:37:08;3.40;;;1.90;;
10711;SDS011;5407;51.234;6.804;2023-09-18T14:39:37;5.78;;;2.30;;
10711;SDS011;5407;51.234;6.804;2023-09-18T14:42:04;7.35;;;2.30;;
10711;SDS011;5407;51.234;6.804;2023-09-18T14:44:31;4.15;;;1.90;;
10711;SDS011;5407;51.234;6.804;2023-09-18T14:46:58;5.05;;;2.03;;
10711;SDS011;5407;51.234;6.804;2023-09-18T14:49:28;4.32;;;1.90;;
10711;SDS011;5407;51.234;6.804;2023-09-18T14:51:55;3.88;;;1.83;;
10711;SDS011;5407;51.234;6.804;2023-09-18T14:54:22;4.53;;;1.90;;
10711;SDS011;5407;51.234;6.804;2023-09-18T14:56:51;4.80;;;1.80;;
10711;SDS011;5407;51.234;6.804;2023-09-18T14:59:18;5.88;;;1.92;;
10711;SDS011;5407;51.234;6.804;2023-09-18T15:01:45;3.03;;;1.70;;
10711;SDS011;5407;51.234;6.804;2023-09-18T15:04:13;6.85;;;2.22;;
10711;SDS011;5407;51.234;6.804;2023-09-18T15:06:40;6.75;;;2.05;;
10711;SDS011;5407;51.234;6.804;2023-09-18T15:09:07;3.88;;;2.13;;
10711;SDS011;5407;51.234;6.804;2023-09-18T15:11:34;6.30;;;2.28;;